Terminal Aerodrome Forecast
Issued by NWS Upton, NY

Home | Current Version | Previous Version | Text Only | Print | Product List | Glossary On
Versions: 1 2 3 4 5 6 7 8 9 10 11 12 13 14 15 16 17 18 19 20 21 22 23 24 25 26 27 28 29 30
000
FTUS41 KOKX 280832 AAA
TAFISP
TAF AMD
KISP 280832Z 2809/2906 22008KT P6SM SCT090
     FM281000 22007KT 5SM BR BKN008
     FM281500 20012KT P6SM SCT020 SCT040
     FM281900 20013G19KT P6SM SCT050 BKN250
     FM290100 22007KT P6SM SCT050 BKN250=

USA.gov is the U.S. government's official web portal to all federal, state and local government web resources and services.